Time;durP1;ratioP1;P1;durP2;ratioP2;P2;SDS_P1;SDS_P2;PMS_P1;PMS_P2;Temp;Humidity;BMP_temperature;BMP_pressure;BME280_temperature;BME280_humidity;BME280_pressure;Samples;Min_cycle;Max_cycle;Signal;HPM_P1;HPM_P2
2023/06/23 00:01:21;;;;;;;18.23;14.00;;;;;;;;;;5030838;28;20088;-73
2023/06/23 00:03:47;;;;;;;18.75;13.07;;;;;;;;;;5033212;28;20056;-73
2023/06/23 00:06:14;;;;;;;19.63;14.02;;;;;;;;;;5034918;28;20052;-73
2023/06/23 00:08:40;;;;;;;18.80;13.93;;;;;;;;;;5035995;28;20073;-72
2023/06/23 00:11:07;;;;;;;21.33;14.48;;;;;;;;;;5033019;28;20060;-73
2023/06/23 00:13:36;;;;;;;22.65;14.32;;;;;;;;;;5034271;28;20530;-74
2023/06/23 00:16:04;;;;;;;20.95;14.35;;;;;;;;;;5034278;28;20046;-73
2023/06/23 00:18:31;;;;;;;18.65;14.32;;;;;;;;;;5035457;28;20579;-73
2023/06/23 00:20:57;;;;;;;19.33;14.13;;;;;;;;;;5034406;28;20053;-73
2023/06/23 00:23:23;;;;;;;18.08;13.07;;;;;;;;;;5035254;28;20052;-72
2023/06/23 00:25:49;;;;;;;18.05;13.30;;;;;;;;;;5032222;28;20053;-74
2023/06/23 00:28:15;;;;;;;22.92;14.15;;;;;;;;;;5035450;28;20042;-74
2023/06/23 00:30:41;;;;;;;17.95;12.73;;;;;;;;;;5034387;28;20116;-74
2023/06/23 00:33:07;;;;;;;18.08;12.73;;;;;;;;;;5035054;28;20038;-73
2023/06/23 00:35:33;;;;;;;16.98;12.68;;;;;;;;;;5032944;28;20136;-73
2023/06/23 00:37:59;;;;;;;19.10;11.98;;;;;;;;;;5034400;28;20041;-73
2023/06/23 00:40:25;;;;;;;16.27;11.95;;;;;;;;;;5033824;28;20045;-74
2023/06/23 00:42:52;;;;;;;19.13;13.07;;;;;;;;;;5032104;28;20038;-73
2023/06/23 00:45:18;;;;;;;16.77;12.15;;;;;;;;;;5031444;28;20420;-73
2023/06/23 00:47:44;;;;;;;20.20;13.10;;;;;;;;;;5032242;28;20476;-73
2023/06/23 00:50:20;;;;;;;19.55;12.77;;;;;;;;;;5032923;28;20073;-74
2023/06/23 00:52:50;;;;;;;14.90;10.30;;;;;;;;;;5031784;28;20538;-72
2023/06/23 00:55:20;;;;;;;18.63;11.98;;;;;;;;;;5031897;28;20088;-73
2023/06/23 00:57:47;;;;;;;16.83;11.13;;;;;;;;;;5033249;28;20052;-73
2023/06/23 01:00:19;;;;;;;16.48;11.80;;;;;;;;;;5032211;28;20041;-73
2023/06/23 01:02:49;;;;;;;15.45;10.50;;;;;;;;;;5033157;28;20484;-73
2023/06/23 01:05:16;;;;;;;15.85;10.48;;;;;;;;;;5032762;28;20076;-73
2023/06/23 01:07:48;;;;;;;17.67;10.23;;;;;;;;;;5033084;28;20556;-73
2023/06/23 01:10:22;;;;;;;13.68;10.07;;;;;;;;;;5033907;28;20119;-74
2023/06/23 01:12:52;;;;;;;16.05;9.63;;;;;;;;;;5034761;28;20056;-73
2023/06/23 01:15:21;;;;;;;13.88;9.15;;;;;;;;;;5033857;28;20053;-73
2023/06/23 01:17:50;;;;;;;14.65;9.15;;;;;;;;;;5034082;28;20077;-73
2023/06/23 01:20:21;;;;;;;13.00;8.98;;;;;;;;;;5032967;28;20487;-73
2023/06/23 01:23:03;;;;;;;16.20;8.93;;;;;;;;;;5033048;28;20095;-73
2023/06/23 01:25:29;;;;;;;12.13;8.18;;;;;;;;;;5033657;28;20068;-73
2023/06/23 01:28:13;;;;;;;16.55;9.05;;;;;;;;;;5032976;28;20111;-73
2023/06/23 01:30:41;;;;;;;11.65;9.10;;;;;;;;;;5034819;28;20099;-73
2023/06/23 01:33:22;;;;;;;12.23;8.52;;;;;;;;;;5034593;28;20049;-73
2023/06/23 01:35:52;;;;;;;13.27;8.60;;;;;;;;;;5032806;28;20053;-73
2023/06/23 01:38:20;;;;;;;13.10;7.97;;;;;;;;;;5029882;28;20041;-77
2023/06/23 01:40:50;;;;;;;15.75;9.15;;;;;;;;;;5031557;28;20041;-73
2023/06/23 01:43:18;;;;;;;12.68;9.52;;;;;;;;;;5031975;28;20037;-73
2023/06/23 01:45:44;;;;;;;15.85;10.50;;;;;;;;;;5032822;28;20539;-74
2023/06/23 01:48:12;;;;;;;16.08;9.80;;;;;;;;;;5032943;28;20399;-73
2023/06/23 01:50:40;;;;;;;16.05;9.45;;;;;;;;;;5031863;28;20045;-73
2023/06/23 01:53:06;;;;;;;15.30;9.43;;;;;;;;;;5033004;28;20080;-73
2023/06/23 01:55:33;;;;;;;15.13;9.23;;;;;;;;;;5031224;28;20045;-73
2023/06/23 01:58:00;;;;;;;15.13;9.25;;;;;;;;;;5031447;28;20045;-73
2023/06/23 02:00:27;;;;;;;14.50;8.65;;;;;;;;;;5033154;28;20045;-73
2023/06/23 02:02:53;;;;;;;13.63;9.25;;;;;;;;;;5031364;28;20128;-73
2023/06/23 02:05:21;;;;;;;14.75;9.05;;;;;;;;;;5031034;28;20049;-73
2023/06/23 02:07:48;;;;;;;16.30;9.63;;;;;;;;;;5032266;28;20041;-73
2023/06/23 02:10:16;;;;;;;14.65;9.48;;;;;;;;;;5033285;28;20053;-74
2023/06/23 02:12:43;;;;;;;12.40;9.10;;;;;;;;;;5033682;28;20053;-74
2023/06/23 02:15:11;;;;;;;16.55;10.13;;;;;;;;;;5034703;28;20446;-74
2023/06/23 02:17:37;;;;;;;12.55;9.27;;;;;;;;;;5032131;28;20045;-73
2023/06/23 02:20:13;;;;;;;13.20;9.88;;;;;;;;;;5031456;28;20403;-73
2023/06/23 02:22:40;;;;;;;13.48;9.88;;;;;;;;;;5031362;28;20502;-73
2023/06/23 02:25:07;;;;;;;15.98;10.65;;;;;;;;;;5031679;28;20042;-73
2023/06/23 02:27:33;;;;;;;17.80;10.95;;;;;;;;;;5032442;28;20041;-73
2023/06/23 02:30:00;;;;;;;15.07;10.85;;;;;;;;;;5032730;28;20117;-73
2023/06/23 02:32:26;;;;;;;16.88;11.60;;;;;;;;;;5051009;28;20045;-73
2023/06/23 02:34:52;;;;;;;16.45;11.27;;;;;;;;;;5032510;28;20051;-73
2023/06/23 02:37:21;;;;;;;17.15;12.00;;;;;;;;;;5034898;28;20053;-73
2023/06/23 02:39:48;;;;;;;19.60;12.40;;;;;;;;;;5036600;28;20073;-73
2023/06/23 02:42:16;;;;;;;18.35;12.32;;;;;;;;;;5035176;28;20127;-73
2023/06/23 02:44:50;;;;;;;17.42;11.77;;;;;;;;;;5035392;28;20053;-74
2023/06/23 02:47:17;;;;;;;20.20;12.90;;;;;;;;;;5033959;28;20492;-73
2023/06/23 02:49:45;;;;;;;17.60;12.57;;;;;;;;;;5034619;28;20091;-73
2023/06/23 02:52:11;;;;;;;15.82;12.40;;;;;;;;;;5036645;28;20103;-74
2023/06/23 02:54:43;;;;;;;18.85;12.90;;;;;;;;;;5033569;28;20044;-73
2023/06/23 02:57:12;;;;;;;18.00;11.98;;;;;;;;;;5036653;28;20077;-73
2023/06/23 02:59:40;;;;;;;19.10;11.88;;;;;;;;;;5036702;28;20053;-73
2023/06/23 03:02:07;;;;;;;20.60;12.82;;;;;;;;;;5035597;28;20050;-73
2023/06/23 03:04:34;;;;;;;17.15;11.88;;;;;;;;;;5037112;28;20049;-73
2023/06/23 03:07:01;;;;;;;15.65;11.23;;;;;;;;;;5034872;28;20060;-73
2023/06/23 03:09:27;;;;;;;15.98;12.30;;;;;;;;;;5027330;28;20052;-74
2023/06/23 03:11:53;;;;;;;14.50;10.95;;;;;;;;;;5035358;28;20089;-73
2023/06/23 03:14:19;;;;;;;14.40;11.07;;;;;;;;;;5035724;28;20442;-73
2023/06/23 03:16:46;;;;;;;18.08;11.60;;;;;;;;;;5036828;28;20041;-74
2023/06/23 03:19:19;;;;;;;15.65;10.88;;;;;;;;;;5032390;28;20053;-74
2023/06/23 03:21:49;;;;;;;15.73;10.38;;;;;;;;;;5034472;28;20076;-73
2023/06/23 03:24:17;;;;;;;15.43;10.48;;;;;;;;;;5034580;28;20496;-73
2023/06/23 03:26:47;;;;;;;12.73;9.60;;;;;;;;;;5033863;28;20049;-73
2023/06/23 03:29:14;;;;;;;15.95;10.20;;;;;;;;;;5033516;28;20495;-73
2023/06/23 03:31:42;;;;;;;17.15;9.48;;;;;;;;;;5034458;28;20095;-73
2023/06/23 03:34:11;;;;;;;16.35;9.75;;;;;;;;;;5035578;28;20118;-73
2023/06/23 03:36:38;;;;;;;16.98;10.05;;;;;;;;;;5033627;28;20049;-74
2023/06/23 03:39:09;;;;;;;14.05;10.02;;;;;;;;;;5033071;28;20042;-73
2023/06/23 03:41:36;;;;;;;14.98;9.43;;;;;;;;;;5035294;28;20057;-74
2023/06/23 03:44:09;;;;;;;12.98;9.20;;;;;;;;;;5036673;28;20042;-73
2023/06/23 03:46:46;;;;;;;18.20;9.30;;;;;;;;;;5034385;28;20060;-72
2023/06/23 03:49:14;;;;;;;13.25;9.20;;;;;;;;;;5035972;28;20488;-73
2023/06/23 03:51:41;;;;;;;13.85;8.82;;;;;;;;;;5035600;28;20073;-73
2023/06/23 03:54:08;;;;;;;12.45;8.27;;;;;;;;;;5032490;28;20076;-72
2023/06/23 03:56:35;;;;;;;17.30;9.07;;;;;;;;;;5036027;28;20045;-73
2023/06/23 03:59:02;;;;;;;15.55;9.18;;;;;;;;;;5037638;28;20052;-74
2023/06/23 04:01:29;;;;;;;13.50;8.70;;;;;;;;;;5030407;28;20128;-72
2023/06/23 04:03:57;;;;;;;13.73;8.05;;;;;;;;;;5036344;28;20064;-74
2023/06/23 04:06:25;;;;;;;12.93;8.50;;;;;;;;;;5034788;28;20092;-74
2023/06/23 04:08:52;;;;;;;16.80;8.60;;;;;;;;;;5035070;28;20051;-73
2023/06/23 04:11:20;;;;;;;16.10;8.55;;;;;;;;;;5035428;28;20624;-75
2023/06/23 04:13:46;;;;;;;11.43;7.60;;;;;;;;;;5037264;28;20057;-74
2023/06/23 04:16:13;;;;;;;11.75;8.52;;;;;;;;;;5036223;28;20038;-73
2023/06/23 04:18:40;;;;;;;11.50;7.75;;;;;;;;;;5035445;28;20431;-73
2023/06/23 04:21:07;;;;;;;13.38;8.30;;;;;;;;;;5035893;28;20041;-74
2023/06/23 04:23:35;;;;;;;14.05;7.95;;;;;;;;;;5033711;28;20046;-73
2023/06/23 04:26:01;;;;;;;13.77;8.20;;;;;;;;;;5035345;28;20050;-73
2023/06/23 04:28:29;;;;;;;19.75;9.38;;;;;;;;;;5026878;28;20136;-74
2023/06/23 04:30:55;;;;;;;14.90;7.90;;;;;;;;;;5038142;28;20038;-73
2023/06/23 04:33:21;;;;;;;11.38;8.00;;;;;;;;;;5035618;28;20131;-73
2023/06/23 04:35:50;;;;;;;14.77;7.97;;;;;;;;;;5034657;28;20103;-74
2023/06/23 04:38:17;;;;;;;12.82;8.20;;;;;;;;;;5034919;28;20057;-74
2023/06/23 04:40:57;;;;;;;12.75;7.95;;;;;;;;;;5035174;28;20049;-74
2023/06/23 04:43:28;;;;;;;11.60;7.95;;;;;;;;;;5035579;28;20096;-74
2023/06/23 04:45:57;;;;;;;13.50;7.47;;;;;;;;;;5036352;28;20128;-73
2023/06/23 04:48:25;;;;;;;13.75;7.68;;;;;;;;;;5037112;28;20107;-73
2023/06/23 04:50:53;;;;;;;11.80;7.32;;;;;;;;;;5035533;28;20407;-73
2023/06/23 04:53:21;;;;;;;12.38;7.82;;;;;;;;;;5036426;28;20484;-74
2023/06/23 04:55:50;;;;;;;12.85;7.93;;;;;;;;;;5035708;28;20053;-74
2023/06/23 04:58:17;;;;;;;14.65;8.45;;;;;;;;;;5032981;28;20487;-73
2023/06/23 05:00:43;;;;;;;11.30;7.90;;;;;;;;;;5036355;28;20067;-74
2023/06/23 05:03:10;;;;;;;15.10;8.65;;;;;;;;;;5036391;28;20042;-73
2023/06/23 05:05:37;;;;;;;12.85;8.30;;;;;;;;;;5036211;28;20046;-73
2023/06/23 05:08:04;;;;;;;15.45;8.32;;;;;;;;;;5036767;28;20042;-74
2023/06/23 05:10:31;;;;;;;12.63;8.32;;;;;;;;;;5034639;28;20063;-73
2023/06/23 05:12:57;;;;;;;12.93;8.07;;;;;;;;;;5035047;28;20446;-74
2023/06/23 05:15:24;;;;;;;13.25;8.23;;;;;;;;;;5036436;28;20072;-73
2023/06/23 05:17:51;;;;;;;12.80;8.05;;;;;;;;;;5036456;28;20072;-74
2023/06/23 05:20:19;;;;;;;14.40;8.05;;;;;;;;;;5033907;28;20037;-73
2023/06/23 05:22:47;;;;;;;13.43;8.38;;;;;;;;;;5035259;28;20049;-74
2023/06/23 05:25:14;;;;;;;15.38;7.63;;;;;;;;;;5035923;28;20107;-74
2023/06/23 05:27:45;;;;;;;9.90;7.78;;;;;;;;;;5034281;28;20051;-74
2023/06/23 05:30:14;;;;;;;13.87;8.43;;;;;;;;;;5035323;28;20053;-74
2023/06/23 05:32:41;;;;;;;11.82;8.20;;;;;;;;;;5034758;28;20037;-73
2023/06/23 05:35:08;;;;;;;12.25;7.72;;;;;;;;;;5035085;28;20357;-73
2023/06/23 05:37:35;;;;;;;13.10;7.65;;;;;;;;;;5036818;28;20042;-74
2023/06/23 05:40:03;;;;;;;14.85;9.32;;;;;;;;;;5034799;28;20052;-74
2023/06/23 05:42:32;;;;;;;11.70;7.90;;;;;;;;;;5033674;28;20099;-74
2023/06/23 05:44:58;;;;;;;13.75;8.57;;;;;;;;;;5031490;28;20407;-72
2023/06/23 05:47:27;;;;;;;11.60;7.10;;;;;;;;;;5037202;28;20072;-73
2023/06/23 05:49:55;;;;;;;16.58;7.75;;;;;;;;;;5025179;28;20052;-73
2023/06/23 05:52:22;;;;;;;17.05;7.45;;;;;;;;;;5036143;28;20052;-72
2023/06/23 05:54:49;;;;;;;13.95;7.80;;;;;;;;;;5027680;28;20069;-72
2023/06/23 05:57:23;;;;;;;14.40;8.52;;;;;;;;;;5017615;28;20046;-73
2023/06/23 05:59:54;;;;;;;14.60;8.85;;;;;;;;;;5035483;28;20080;-74
2023/06/23 06:02:22;;;;;;;14.52;8.48;;;;;;;;;;5036336;28;20053;-73
2023/06/23 06:04:49;;;;;;;12.30;8.18;;;;;;;;;;5035263;28;20075;-73
2023/06/23 06:07:16;;;;;;;14.98;8.40;;;;;;;;;;5030796;28;20061;-73
2023/06/23 06:09:43;;;;;;;14.35;8.57;;;;;;;;;;5035036;28;20401;-73
2023/06/23 06:12:11;;;;;;;13.73;8.68;;;;;;;;;;5036283;28;20433;-73
2023/06/23 06:14:37;;;;;;;13.55;8.35;;;;;;;;;;5036869;28;20088;-75
2023/06/23 06:17:04;;;;;;;14.10;8.70;;;;;;;;;;5037412;28;20054;-74
2023/06/23 06:19:30;;;;;;;14.32;8.50;;;;;;;;;;5037793;28;20041;-73
2023/06/23 06:21:58;;;;;;;12.82;9.20;;;;;;;;;;5037417;28;20046;-72
2023/06/23 06:24:24;;;;;;;12.90;8.95;;;;;;;;;;5032780;28;20561;-74
2023/06/23 06:26:55;;;;;;;16.13;8.85;;;;;;;;;;5026425;28;20053;-73
2023/06/23 06:29:21;;;;;;;13.03;8.33;;;;;;;;;;5036718;28;20060;-73
2023/06/23 06:31:48;;;;;;;14.65;8.27;;;;;;;;;;5034606;28;20045;-73
2023/06/23 06:34:15;;;;;;;13.43;8.50;;;;;;;;;;5033369;28;20049;-73
2023/06/23 06:36:41;;;;;;;12.23;8.00;;;;;;;;;;5028545;28;20118;-75
2023/06/23 06:39:08;;;;;;;11.77;7.60;;;;;;;;;;5035396;28;20052;-73
2023/06/23 06:41:35;;;;;;;12.93;7.10;;;;;;;;;;5037283;28;20045;-73
2023/06/23 06:44:03;;;;;;;13.35;7.55;;;;;;;;;;5036074;28;20045;-74
2023/06/23 06:46:29;;;;;;;11.98;7.43;;;;;;;;;;5037366;28;20056;-74
2023/06/23 06:48:56;;;;;;;11.10;6.50;;;;;;;;;;5036197;28;20057;-74
2023/06/23 06:51:23;;;;;;;12.77;7.28;;;;;;;;;;5037317;28;20104;-73
2023/06/23 06:53:49;;;;;;;11.55;6.75;;;;;;;;;;5036596;28;20506;-73
2023/06/23 06:56:15;;;;;;;11.13;6.95;;;;;;;;;;5036309;28;20111;-73
2023/06/23 06:58:41;;;;;;;12.57;6.38;;;;;;;;;;5034743;28;20084;-74
2023/06/23 07:01:07;;;;;;;9.90;5.93;;;;;;;;;;5036088;28;20149;-75
2023/06/23 07:03:34;;;;;;;9.20;5.90;;;;;;;;;;5035064;28;20438;-75
2023/06/23 07:06:00;;;;;;;8.73;5.80;;;;;;;;;;5036057;28;20045;-74
2023/06/23 07:08:26;;;;;;;11.02;6.15;;;;;;;;;;5034717;28;20057;-72
2023/06/23 07:10:52;;;;;;;11.10;6.07;;;;;;;;;;5031133;28;20058;-75
2023/06/23 07:13:19;;;;;;;10.45;5.65;;;;;;;;;;5034350;28;20124;-73
2023/06/23 07:15:45;;;;;;;9.82;5.40;;;;;;;;;;5034779;28;20586;-74
2023/06/23 07:18:11;;;;;;;9.45;5.60;;;;;;;;;;5030905;28;20050;-74
2023/06/23 07:20:37;;;;;;;8.55;5.13;;;;;;;;;;5015369;28;20053;-75
2023/06/23 07:23:03;;;;;;;9.20;5.95;;;;;;;;;;5024824;28;20102;-74
2023/06/23 07:25:29;;;;;;;9.30;4.97;;;;;;;;;;5036541;28;20377;-75
2023/06/23 07:27:55;;;;;;;10.43;5.95;;;;;;;;;;5036372;28;20106;-74
2023/06/23 07:30:21;;;;;;;9.75;5.07;;;;;;;;;;5037297;28;20046;-72
2023/06/23 07:32:47;;;;;;;9.27;4.95;;;;;;;;;;5033349;28;20112;-72
2023/06/23 07:35:13;;;;;;;9.50;4.88;;;;;;;;;;5037973;28;20054;-74
2023/06/23 07:37:40;;;;;;;8.23;4.70;;;;;;;;;;5035628;28;20041;-72
2023/06/23 07:40:06;;;;;;;9.68;4.50;;;;;;;;;;5036953;28;20090;-73
2023/06/23 07:42:32;;;;;;;8.93;4.63;;;;;;;;;;5037406;28;20045;-72
2023/06/23 07:44:58;;;;;;;10.52;4.50;;;;;;;;;;5032616;28;20045;-72
2023/06/23 07:47:24;;;;;;;7.50;3.92;;;;;;;;;;5050129;28;20415;-74
2023/06/23 07:49:50;;;;;;;7.18;4.20;;;;;;;;;;5051529;28;20038;-73
2023/06/23 07:52:16;;;;;;;8.35;3.83;;;;;;;;;;5038306;28;20109;-73
2023/06/23 07:54:42;;;;;;;8.93;4.28;;;;;;;;;;5036812;28;20111;-74
2023/06/23 07:57:10;;;;;;;10.00;4.50;;;;;;;;;;5036791;28;20504;-73
2023/06/23 07:59:36;;;;;;;12.80;5.10;;;;;;;;;;5037717;28;20060;-73
2023/06/23 08:02:02;;;;;;;7.93;4.70;;;;;;;;;;5035193;28;20088;-73
2023/06/23 08:04:28;;;;;;;7.35;4.28;;;;;;;;;;5037683;28;20045;-73
2023/06/23 08:06:54;;;;;;;8.68;4.60;;;;;;;;;;5037631;28;20551;-73
2023/06/23 08:09:20;;;;;;;8.30;4.32;;;;;;;;;;5034907;28;20077;-73
2023/06/23 08:11:46;;;;;;;9.73;4.43;;;;;;;;;;5033838;28;20060;-73
2023/06/23 08:14:13;;;;;;;7.90;4.50;;;;;;;;;;5037780;28;20500;-73
2023/06/23 08:16:39;;;;;;;6.30;4.07;;;;;;;;;;5036712;28;20057;-72
2023/06/23 08:19:05;;;;;;;7.65;3.95;;;;;;;;;;5037987;28;20103;-73
2023/06/23 08:21:31;;;;;;;10.70;4.60;;;;;;;;;;5037193;28;20456;-75
2023/06/23 08:23:57;;;;;;;6.10;3.80;;;;;;;;;;5024382;28;20057;-73
2023/06/23 08:26:24;;;;;;;7.63;4.28;;;;;;;;;;5036185;28;20074;-74
2023/06/23 08:28:50;;;;;;;7.55;4.38;;;;;;;;;;5035879;28;20045;-73
2023/06/23 08:31:16;;;;;;;8.40;4.40;;;;;;;;;;5029734;28;20476;-73
2023/06/23 08:33:44;;;;;;;8.23;4.70;;;;;;;;;;5033497;28;20152;-75
2023/06/23 08:36:10;;;;;;;8.13;3.78;;;;;;;;;;5037216;28;20054;-73
2023/06/23 08:38:36;;;;;;;8.07;4.28;;;;;;;;;;5036652;28;20061;-72
2023/06/23 08:41:02;;;;;;;7.30;4.10;;;;;;;;;;5035814;28;20442;-73
2023/06/23 08:43:28;;;;;;;7.32;4.07;;;;;;;;;;5035083;28;20038;-72
2023/06/23 08:45:58;;;;;;;8.15;4.68;;;;;;;;;;5031282;28;20069;-72
2023/06/23 08:48:29;;;;;;;7.47;4.03;;;;;;;;;;5034351;28;20050;-72
2023/06/23 08:50:56;;;;;;;9.63;4.65;;;;;;;;;;5035519;28;20053;-73
2023/06/23 08:53:23;;;;;;;8.10;3.95;;;;;;;;;;5035296;28;20411;-73
2023/06/23 08:55:50;;;;;;;7.57;4.32;;;;;;;;;;5018117;28;20038;-72
2023/06/23 08:58:17;;;;;;;8.18;4.07;;;;;;;;;;5025027;28;20053;-71
2023/06/23 09:00:43;;;;;;;6.93;4.10;;;;;;;;;;5033989;28;20110;-73
2023/06/23 09:03:09;;;;;;;9.13;4.10;;;;;;;;;;5051949;28;20090;-73
2023/06/23 09:05:36;;;;;;;6.65;3.65;;;;;;;;;;5043740;28;20049;-73
2023/06/23 09:08:02;;;;;;;9.23;4.32;;;;;;;;;;5039460;28;20037;-74
2023/06/23 09:10:28;;;;;;;12.10;4.20;;;;;;;;;;5040547;28;20081;-72
2023/06/23 09:13:15;;;;;;;7.85;4.18;;;;;;;;;;5040991;28;20427;-76
2023/06/23 09:15:44;;;;;;;7.60;3.90;;;;;;;;;;5030894;28;20061;-74
2023/06/23 09:18:11;;;;;;;14.18;4.03;;;;;;;;;;5037112;28;20530;-74
2023/06/23 09:20:38;;;;;;;10.25;4.38;;;;;;;;;;5035733;28;20450;-74
2023/06/23 09:23:04;;;;;;;7.75;3.80;;;;;;;;;;5038138;28;20126;-73
2023/06/23 09:25:49;;;;;;;7.25;3.72;;;;;;;;;;5036706;28;20057;-74
2023/06/23 09:28:22;;;;;;;5.85;3.67;;;;;;;;;;5037102;28;20050;-73
2023/06/23 09:30:49;;;;;;;6.00;3.22;;;;;;;;;;5036794;28;20136;-72
2023/06/23 09:33:17;;;;;;;5.50;3.42;;;;;;;;;;5035900;28;20049;-72
2023/06/23 09:35:56;;;;;;;6.10;3.70;;;;;;;;;;5036489;28;20487;-73
2023/06/23 09:38:23;;;;;;;10.60;3.65;;;;;;;;;;5036776;28;20057;-73
2023/06/23 09:41:01;;;;;;;8.07;3.60;;;;;;;;;;5034046;28;20049;-75
2023/06/23 09:43:27;;;;;;;7.47;3.60;;;;;;;;;;5035097;28;20137;-73
2023/06/23 09:45:53;;;;;;;6.43;3.33;;;;;;;;;;5036275;28;20073;-78
2023/06/23 09:48:20;;;;;;;5.95;3.17;;;;;;;;;;5038807;28;20029;-76
2023/06/23 09:50:46;;;;;;;7.00;3.53;;;;;;;;;;5031091;28;20121;-71
2023/06/23 09:53:20;;;;;;;6.20;3.33;;;;;;;;;;5027080;28;20053;-70
2023/06/23 09:55:46;;;;;;;5.43;3.10;;;;;;;;;;5030874;28;20048;-70
2023/06/23 09:58:13;;;;;;;5.97;2.92;;;;;;;;;;5033972;28;20380;-70
2023/06/23 10:00:39;;;;;;;6.78;2.88;;;;;;;;;;5032333;28;20096;-70
2023/06/23 10:03:06;;;;;;;5.43;3.33;;;;;;;;;;5032491;28;20121;-71
2023/06/23 10:05:35;;;;;;;5.88;3.30;;;;;;;;;;5031520;28;20053;-71
2023/06/23 10:08:06;;;;;;;6.15;3.20;;;;;;;;;;5030617;28;20525;-72
2023/06/23 10:10:33;;;;;;;5.57;3.50;;;;;;;;;;5031532;28;20046;-71
2023/06/23 10:12:59;;;;;;;6.90;3.30;;;;;;;;;;5029837;28;20397;-71
2023/06/23 10:15:28;;;;;;;5.43;2.80;;;;;;;;;;5030630;28;20107;-72
2023/06/23 10:17:54;;;;;;;5.00;2.92;;;;;;;;;;5029559;28;20069;-71
2023/06/23 10:20:20;;;;;;;5.95;3.25;;;;;;;;;;5031249;28;20451;-71
2023/06/23 10:22:47;;;;;;;6.18;2.90;;;;;;;;;;5031932;28;20046;-71
2023/06/23 10:25:13;;;;;;;5.72;3.08;;;;;;;;;;5033912;28;20046;-71
2023/06/23 10:27:42;;;;;;;5.22;3.05;;;;;;;;;;5032040;28;20483;-72
2023/06/23 10:30:10;;;;;;;7.50;3.20;;;;;;;;;;5030325;28;20507;-72
2023/06/23 10:32:37;;;;;;;8.35;3.33;;;;;;;;;;5033643;28;20081;-71
2023/06/23 10:35:08;;;;;;;6.47;2.97;;;;;;;;;;5031363;28;20494;-72
2023/06/23 10:37:35;;;;;;;6.40;3.40;;;;;;;;;;5032735;28;20046;-72
2023/06/23 10:40:04;;;;;;;5.55;3.10;;;;;;;;;;5029407;28;20451;-72
2023/06/23 10:42:34;;;;;;;6.22;3.40;;;;;;;;;;5032218;28;20393;-72
2023/06/23 10:45:01;;;;;;;6.15;3.50;;;;;;;;;;5032990;28;20064;-72
2023/06/23 10:47:28;;;;;;;7.38;3.45;;;;;;;;;;5032878;28;20045;-72
2023/06/23 10:49:54;;;;;;;6.68;3.72;;;;;;;;;;5031174;28;20037;-71
2023/06/23 10:52:21;;;;;;;6.78;3.75;;;;;;;;;;5032986;28;20081;-72
2023/06/23 10:54:48;;;;;;;7.38;3.70;;;;;;;;;;5032225;28;20088;-72
2023/06/23 10:57:14;;;;;;;5.43;3.50;;;;;;;;;;5032106;28;20099;-71
2023/06/23 11:00:00;;;;;;;8.07;3.72;;;;;;;;;;5031572;28;20140;-71
2023/06/23 11:02:29;;;;;;;6.03;3.78;;;;;;;;;;5035929;28;20060;-71
2023/06/23 11:05:02;;;;;;;6.55;3.55;;;;;;;;;;5028355;28;20116;-72
2023/06/23 11:07:28;;;;;;;5.20;3.30;;;;;;;;;;5039956;28;20387;-71
2023/06/23 11:09:55;;;;;;;8.20;3.75;;;;;;;;;;5049139;28;20102;-71
2023/06/23 11:12:39;;;;;;;7.50;3.53;;;;;;;;;;5050069;28;20060;-72
2023/06/23 11:15:23;;;;;;;5.53;3.38;;;;;;;;;;5041107;28;20042;-71
2023/06/23 11:17:50;;;;;;;6.47;3.85;;;;;;;;;;5019591;28;20051;-71
2023/06/23 11:20:25;;;;;;;7.38;3.38;;;;;;;;;;5029469;28;20045;-71
2023/06/23 11:22:55;;;;;;;6.88;3.70;;;;;;;;;;5033583;28;20053;-72
2023/06/23 11:25:27;;;;;;;6.68;3.33;;;;;;;;;;5035748;28;20068;-71
2023/06/23 11:28:12;;;;;;;6.20;3.00;;;;;;;;;;5028414;28;20037;-72
2023/06/23 11:30:57;;;;;;;7.07;3.25;;;;;;;;;;5018249;28;20060;-71
2023/06/23 11:33:30;;;;;;;6.75;3.03;;;;;;;;;;5021467;28;20053;-72
2023/06/23 11:35:59;;;;;;;8.32;3.00;;;;;;;;;;5036704;28;20053;-71
2023/06/23 11:38:27;;;;;;;5.88;2.63;;;;;;;;;;5029511;28;20041;-71
2023/06/23 11:40:55;;;;;;;7.97;2.85;;;;;;;;;;5032379;28;20045;-69
2023/06/23 11:43:22;;;;;;;5.72;2.88;;;;;;;;;;5043759;28;20049;-70
2023/06/23 11:45:52;;;;;;;6.47;3.00;;;;;;;;;;5032419;28;20053;-69
2023/06/23 11:48:19;;;;;;;5.47;3.20;;;;;;;;;;5027848;28;20053;-69
2023/06/23 11:50:45;;;;;;;5.95;2.75;;;;;;;;;;5035093;28;20517;-70
2023/06/23 11:53:11;;;;;;;6.45;3.15;;;;;;;;;;5034991;28;20037;-70
2023/06/23 11:55:37;;;;;;;5.97;3.05;;;;;;;;;;5035665;28;20396;-71
2023/06/23 11:58:03;;;;;;;6.00;3.15;;;;;;;;;;5032648;28;20389;-68
2023/06/23 12:00:30;;;;;;;7.13;3.42;;;;;;;;;;5033918;28;20049;-71
2023/06/23 12:02:58;;;;;;;6.82;3.22;;;;;;;;;;5033521;28;20057;-71
2023/06/23 12:05:24;;;;;;;8.10;3.28;;;;;;;;;;5031091;28;20398;-70
2023/06/23 12:07:50;;;;;;;6.18;2.90;;;;;;;;;;5033804;28;20045;-70
2023/06/23 12:10:17;;;;;;;5.57;3.10;;;;;;;;;;5032564;28;20087;-70
2023/06/23 12:12:45;;;;;;;5.35;2.58;;;;;;;;;;5033058;28;20076;-70
2023/06/23 12:15:11;;;;;;;5.40;2.85;;;;;;;;;;5033839;28;20049;-70
2023/06/23 12:17:41;;;;;;;5.03;2.53;;;;;;;;;;5035021;28;20184;-70
2023/06/23 12:20:07;;;;;;;8.93;2.90;;;;;;;;;;5034782;28;20042;-69
2023/06/23 12:22:37;;;;;;;6.43;2.58;;;;;;;;;;5034365;28;20056;-70
2023/06/23 12:25:06;;;;;;;5.00;2.65;;;;;;;;;;5033846;28;20536;-70
2023/06/23 12:27:32;;;;;;;5.07;2.40;;;;;;;;;;5033913;28;20621;-71
2023/06/23 12:30:14;;;;;;;10.68;2.70;;;;;;;;;;5033920;28;20045;-70
2023/06/23 12:32:40;;;;;;;6.63;2.53;;;;;;;;;;5032364;28;20041;-71
2023/06/23 12:35:09;;;;;;;5.03;2.60;;;;;;;;;;5035035;28;20046;-70
2023/06/23 12:37:45;;;;;;;11.00;3.30;;;;;;;;;;5034430;28;20160;-70
2023/06/23 12:40:28;;;;;;;9.82;2.40;;;;;;;;;;5033935;28;20081;-70
2023/06/23 12:42:56;;;;;;;6.00;2.60;;;;;;;;;;5032331;28;20056;-70
2023/06/23 12:45:23;;;;;;;5.20;2.40;;;;;;;;;;5033255;28;20110;-71
2023/06/23 12:47:49;;;;;;;6.22;2.63;;;;;;;;;;5030323;28;20140;-70
2023/06/23 12:50:15;;;;;;;5.22;2.83;;;;;;;;;;5033257;28;20045;-69
2023/06/23 12:52:41;;;;;;;6.65;2.50;;;;;;;;;;5032835;28;20045;-70
2023/06/23 12:55:08;;;;;;;6.55;3.00;;;;;;;;;;5032826;28;20499;-69
2023/06/23 12:57:34;;;;;;;4.63;2.60;;;;;;;;;;5031871;28;20045;-70
2023/06/23 13:00:00;;;;;;;6.35;2.90;;;;;;;;;;5030642;28;20041;-70
2023/06/23 13:02:26;;;;;;;5.45;2.50;;;;;;;;;;5031553;28;20042;-70
2023/06/23 13:04:52;;;;;;;5.03;2.90;;;;;;;;;;5033987;28;20057;-71
2023/06/23 13:07:19;;;;;;;5.13;2.90;;;;;;;;;;5033524;28;20041;-70
2023/06/23 13:09:45;;;;;;;5.28;2.70;;;;;;;;;;5031033;28;20041;-70
2023/06/23 13:12:11;;;;;;;4.93;2.67;;;;;;;;;;5029525;28;20061;-69
2023/06/23 13:14:37;;;;;;;6.50;2.70;;;;;;;;;;5032645;28;20075;-70
2023/06/23 13:17:04;;;;;;;5.43;2.60;;;;;;;;;;5033515;28;20044;-70
2023/06/23 13:19:30;;;;;;;5.15;2.60;;;;;;;;;;5040634;28;20046;-70
2023/06/23 13:21:56;;;;;;;7.03;2.90;;;;;;;;;;5064729;28;20037;-71
2023/06/23 13:24:22;;;;;;;5.13;2.42;;;;;;;;;;5044231;28;20041;-70
2023/06/23 13:26:48;;;;;;;7.18;2.75;;;;;;;;;;5038303;28;20053;-69
2023/06/23 13:29:14;;;;;;;5.38;2.78;;;;;;;;;;5027911;28;20096;-70
2023/06/23 13:31:40;;;;;;;5.63;2.40;;;;;;;;;;5021186;28;20041;-70
2023/06/23 13:34:06;;;;;;;6.60;2.88;;;;;;;;;;5015565;28;20041;-70
2023/06/23 13:36:33;;;;;;;4.20;2.40;;;;;;;;;;5033493;28;20049;-71
2023/06/23 13:38:59;;;;;;;5.75;2.50;;;;;;;;;;5028823;28;20041;-70
2023/06/23 13:41:25;;;;;;;4.75;2.33;;;;;;;;;;5027076;28;20128;-69
2023/06/23 13:43:51;;;;;;;5.80;2.40;;;;;;;;;;5024243;28;20046;-70
2023/06/23 13:46:18;;;;;;;6.13;2.22;;;;;;;;;;5029575;28;20057;-70
2023/06/23 13:48:45;;;;;;;6.20;2.88;;;;;;;;;;5027886;28;20092;-70
2023/06/23 13:51:11;;;;;;;4.70;2.08;;;;;;;;;;5023203;28;20077;-69
2023/06/23 13:53:38;;;;;;;6.25;2.45;;;;;;;;;;5025728;28;20073;-69
2023/06/23 13:56:08;;;;;;;7.10;2.85;;;;;;;;;;5027411;28;20075;-70
2023/06/23 13:58:34;;;;;;;5.88;2.70;;;;;;;;;;5030094;28;20053;-69
2023/06/23 14:01:00;;;;;;;5.80;2.78;;;;;;;;;;5011507;28;20037;-70
2023/06/23 14:03:26;;;;;;;6.05;2.30;;;;;;;;;;5013895;28;20133;-71
2023/06/23 14:05:52;;;;;;;6.75;2.65;;;;;;;;;;5025468;28;20053;-71
2023/06/23 14:08:18;;;;;;;7.60;2.90;;;;;;;;;;5021106;28;20038;-70
2023/06/23 14:10:44;;;;;;;8.98;3.20;;;;;;;;;;5024293;28;20054;-70
2023/06/23 14:13:10;;;;;;;6.07;2.80;;;;;;;;;;5031446;28;20041;-71
2023/06/23 14:15:36;;;;;;;6.32;3.10;;;;;;;;;;5032588;28;20075;-70
2023/06/23 14:18:02;;;;;;;6.80;3.17;;;;;;;;;;5032449;28;20046;-70
2023/06/23 14:20:29;;;;;;;6.95;3.65;;;;;;;;;;5030612;28;20045;-70
2023/06/23 14:22:55;;;;;;;6.93;2.80;;;;;;;;;;5004097;28;20117;-70
2023/06/23 14:25:22;;;;;;;6.22;3.20;;;;;;;;;;5030851;28;20049;-70
2023/06/23 14:27:48;;;;;;;7.95;3.00;;;;;;;;;;5031288;28;20057;-69
2023/06/23 14:30:14;;;;;;;7.80;3.25;;;;;;;;;;5032063;28;20037;-70
2023/06/23 14:32:40;;;;;;;5.65;2.90;;;;;;;;;;5034595;28;20041;-70
2023/06/23 14:35:06;;;;;;;7.03;2.75;;;;;;;;;;5031447;28;20049;-71
2023/06/23 14:37:32;;;;;;;5.80;3.10;;;;;;;;;;5031636;28;20046;-70